This is the latest recevied weather packets stored in our database for station/object EDDH. If no packets are shown the sender has not sent any weather packets the latest 10 day(s).
| Time | Temp. | Humidity | Pressure | Rain* | Wind** | Luminosity | Snow |
|---|---|---|---|---|---|---|---|
| 1787962202 | 16.67° C | 85% | 1008 hPa | 0 mm | - | - | - |
| 1787958602 | 16.67° C | 85% | 1008 hPa | 0 mm | - | - | - |
| 1787955002 | 15.56° C | 90% | 1008 hPa | 0 mm | - | - | - |
| 1787951402 | 16.67° C | 90% | 1008 hPa | 0 mm | - | - | - |
| 1787940602 | 18.89° C | 80% | 1006 hPa | 0 mm | - | - | - |
| 1787937002 | 20° C | 85% | 1006 hPa | 0 mm | - | - | - |
| 1787933401 | 21.67° C | 85% | 1006 hPa | 0 mm | - | - | - |
| 1787929801 | 22.78° C | 75% | 1006 hPa | 0 mm | - | - | - |
| 1787926201 | 20.56° C | 85% | 1006 hPa | 0 mm | - | - | - |
| 1787922601 | 20.56° C | 85% | 1007 hPa | 0 mm | - | - | - |
| 1787919002 | 20.56° C | 80% | 1007 hPa | 0 mm | - | - | - |
| 1787915402 | 20.56° C | 80% | 1006 hPa | 0 mm | - | - | - |
| 1787911801 | 20° C | 80% | 1007 hPa | 0 mm | - | - | - |
| 1787908202 | 18.89° C | 80% | 1006 hPa | 0 mm | - | - | - |
| 1787904602 | 17.78° C | 85% | 1007 hPa | 0 mm | - | - | - |
| 1787901001 | 16.67° C | 90% | 1007 hPa | 0 mm | - | - | - |
| 1787897402 | 16.67° C | 90% | 1007 hPa | 0 mm | - | - | - |
| 1787893802 | 16.67° C | 95% | 1007 hPa | 0 mm | - | - | - |
| 1787890202 | 15.56° C | 95% | 1009 hPa | 0 mm | - | - | - |
| 1787886602 | 18.89° C | 70% | 1011 hPa | 0 mm | - | - | - |
| 1787883002 | 21.67° C | 45% | 1009 hPa | 0 mm | - | - | - |
| 1787879403 | 21.67° C | 45% | 1009 hPa | 0 mm | - | - | - |
| 1787875801 | 22.78° C | 45% | 1010 hPa | 0 mm | - | - | - |
| 1787872202 | 22.78° C | 45% | 1011 hPa | 0 mm | - | - | - |
| 1787868601 | 23.89° C | 40% | 1012 hPa | 0 mm | - | - | - |
* Rain latest 24 hours (hover to see other rain measurements)
** Current wind speed in m/s (hover to see current wind gust speed)